sensor_id;sensor_type;location;lat;lon;timestamp;pressure;altitude;pressure_sealevel;temperature;humidity
74075;BME280;62428;51.412;5.432;2023-02-01T00:01:39;101943.81;;;4.65;88.39
74075;BME280;62428;51.412;5.432;2023-02-01T00:04:04;101947.75;;;4.62;88.30
74075;BME280;62428;51.412;5.432;2023-02-01T00:06:30;101937.75;;;4.57;87.48
74075;BME280;62428;51.412;5.432;2023-02-01T00:08:55;101929.19;;;4.55;87.33
74075;BME280;62428;51.412;5.432;2023-02-01T00:11:21;101929.84;;;4.51;87.64
74075;BME280;62428;51.412;5.432;2023-02-01T00:13:47;101927.66;;;4.48;87.25
74075;BME280;62428;51.412;5.432;2023-02-01T00:16:18;101933.19;;;4.46;86.74
74075;BME280;62428;51.412;5.432;2023-02-01T00:18:45;101929.34;;;4.42;86.85
74075;BME280;62428;51.412;5.432;2023-02-01T00:21:11;101923.66;;;4.38;86.54
74075;BME280;62428;51.412;5.432;2023-02-01T00:23:37;101917.13;;;4.34;86.08
74075;BME280;62428;51.412;5.432;2023-02-01T00:26:06;101897.13;;;4.32;86.17
74075;BME280;62428;51.412;5.432;2023-02-01T00:28:31;101894.69;;;4.30;86.37
74075;BME280;62428;51.412;5.432;2023-02-01T00:31:01;101891.44;;;4.28;86.10
74075;BME280;62428;51.412;5.432;2023-02-01T00:33:28;101899.41;;;4.28;85.36
74075;BME280;62428;51.412;5.432;2023-02-01T00:36:01;101902.31;;;4.27;85.83
74075;BME280;62428;51.412;5.432;2023-02-01T00:38:28;101904.97;;;4.27;85.70
74075;BME280;62428;51.412;5.432;2023-02-01T00:40:56;101903.94;;;4.28;85.52
74075;BME280;62428;51.412;5.432;2023-02-01T00:43:26;101894.31;;;4.27;85.53
74075;BME280;62428;51.412;5.432;2023-02-01T00:45:51;101883.69;;;4.27;85.77
74075;BME280;62428;51.412;5.432;2023-02-01T00:48:17;101877.34;;;4.28;85.51
74075;BME280;62428;51.412;5.432;2023-02-01T00:50:43;101882.06;;;4.26;86.16
74075;BME280;62428;51.412;5.432;2023-02-01T00:53:09;101887.03;;;4.22;85.39
74075;BME280;62428;51.412;5.432;2023-02-01T00:55:38;101897.88;;;4.20;85.49
74075;BME280;62428;51.412;5.432;2023-02-01T00:58:04;101897.06;;;4.20;85.31
74075;BME280;62428;51.412;5.432;2023-02-01T01:00:32;101902.84;;;4.17;85.73
74075;BME280;62428;51.412;5.432;2023-02-01T01:02:57;101904.91;;;4.15;85.53
74075;BME280;62428;51.412;5.432;2023-02-01T01:05:23;101907.19;;;4.11;85.20
74075;BME280;62428;51.412;5.432;2023-02-01T01:07:49;101909.06;;;4.11;85.66
74075;BME280;62428;51.412;5.432;2023-02-01T01:10:14;101904.97;;;4.08;85.31
74075;BME280;62428;51.412;5.432;2023-02-01T01:12:40;101917.91;;;4.04;85.60
74075;BME280;62428;51.412;5.432;2023-02-01T01:15:06;101912.78;;;4.03;85.86
74075;BME280;62428;51.412;5.432;2023-02-01T01:17:32;101908.75;;;4.00;85.94
74075;BME280;62428;51.412;5.432;2023-02-01T01:19:57;101914.50;;;3.97;86.00
74075;BME280;62428;51.412;5.432;2023-02-01T01:22:22;101925.59;;;3.94;86.06
74075;BME280;62428;51.412;5.432;2023-02-01T01:24:48;101916.19;;;3.92;86.02
74075;BME280;62428;51.412;5.432;2023-02-01T01:27:13;101905.56;;;3.92;86.11
74075;BME280;62428;51.412;5.432;2023-02-01T01:29:39;101902.09;;;3.91;86.58
74075;BME280;62428;51.412;5.432;2023-02-01T01:32:04;101900.47;;;3.90;86.52
74075;BME280;62428;51.412;5.432;2023-02-01T01:34:29;101906.59;;;3.91;86.51
74075;BME280;62428;51.412;5.432;2023-02-01T01:36:55;101910.50;;;3.88;86.45
74075;BME280;62428;51.412;5.432;2023-02-01T01:39:20;101906.44;;;3.85;87.12
74075;BME280;62428;51.412;5.432;2023-02-01T01:41:45;101903.19;;;3.83;86.69
74075;BME280;62428;51.412;5.432;2023-02-01T01:47:14;101912.19;;;3.82;87.06
74075;BME280;62428;51.412;5.432;2023-02-01T01:49:40;101909.97;;;3.79;87.59
74075;BME280;62428;51.412;5.432;2023-02-01T01:52:06;101913.69;;;3.78;87.80
74075;BME280;62428;51.412;5.432;2023-02-01T01:54:35;101917.34;;;3.77;87.80
74075;BME280;62428;51.412;5.432;2023-02-01T01:57:06;101921.06;;;3.76;88.20
74075;BME280;62428;51.412;5.432;2023-02-01T01:59:34;101911.66;;;3.74;88.32
74075;BME280;62428;51.412;5.432;2023-02-01T02:02:01;101912.72;;;3.73;88.39
74075;BME280;62428;51.412;5.432;2023-02-01T02:04:27;101917.44;;;3.71;88.31
74075;BME280;62428;51.412;5.432;2023-02-01T02:06:59;101920.09;;;3.71;88.58
74075;BME280;62428;51.412;5.432;2023-02-01T02:09:25;101928.06;;;3.71;88.74
74075;BME280;62428;51.412;5.432;2023-02-01T02:11:51;101919.25;;;3.70;89.23
74075;BME280;62428;51.412;5.432;2023-02-01T02:14:19;101912.56;;;3.68;89.08
74075;BME280;62428;51.412;5.432;2023-02-01T02:16:52;101899.25;;;3.68;89.65
74075;BME280;62428;51.412;5.432;2023-02-01T02:27:02;101892.31;;;3.66;89.82
74075;BME280;62428;51.412;5.432;2023-02-01T02:32:53;101873.84;;;3.72;89.56
74075;BME280;62428;51.412;5.432;2023-02-01T02:35:33;101872.00;;;3.72;89.66
74075;BME280;62428;51.412;5.432;2023-02-01T02:43:44;101871.72;;;3.80;89.87
74075;BME280;62428;51.412;5.432;2023-02-01T02:46:37;101870.94;;;3.80;89.76
74075;BME280;62428;51.412;5.432;2023-02-01T02:52:37;101865.34;;;3.81;89.80
74075;BME280;62428;51.412;5.432;2023-02-01T02:55:23;101869.88;;;3.81;89.51
74075;BME280;62428;51.412;5.432;2023-02-01T02:57:50;101865.34;;;3.81;89.68
74075;BME280;62428;51.412;5.432;2023-02-01T03:00:35;101863.53;;;3.82;89.69
74075;BME280;62428;51.412;5.432;2023-02-01T03:03:20;101864.72;;;3.86;89.36
74075;BME280;62428;51.412;5.432;2023-02-01T03:06:12;101859.19;;;3.88;89.52
74075;BME280;62428;51.412;5.432;2023-02-01T03:08:39;101857.53;;;3.87;89.51
74075;BME280;62428;51.412;5.432;2023-02-01T03:11:13;101867.75;;;3.90;89.65
74075;BME280;62428;51.412;5.432;2023-02-01T03:13:58;101858.13;;;3.89;89.33
74075;BME280;62428;51.412;5.432;2023-02-01T03:16:44;101844.41;;;3.92;89.21
74075;BME280;62428;51.412;5.432;2023-02-01T03:19:20;101850.31;;;3.94;88.94
74075;BME280;62428;51.412;5.432;2023-02-01T03:22:02;101852.97;;;3.94;89.07
74075;BME280;62428;51.412;5.432;2023-02-01T03:24:39;101855.63;;;3.94;89.05
74075;BME280;62428;51.412;5.432;2023-02-01T03:27:20;101850.31;;;3.94;89.07
74075;BME280;62428;51.412;5.432;2023-02-01T03:29:54;101858.50;;;3.92;89.21
74075;BME280;62428;51.412;5.432;2023-02-01T03:32:21;101861.16;;;3.92;88.84
74075;BME280;62428;51.412;5.432;2023-02-01T03:34:47;101856.31;;;3.89;88.88
74075;BME280;62428;51.412;5.432;2023-02-01T03:37:16;101861.84;;;3.88;89.29
74075;BME280;62428;51.412;5.432;2023-02-01T03:40:07;101861.25;;;3.85;89.38
74075;BME280;62428;51.412;5.432;2023-02-01T03:42:47;101860.41;;;3.85;89.65
74075;BME280;62428;51.412;5.432;2023-02-01T03:45:20;101856.97;;;3.84;89.62
74075;BME280;62428;51.412;5.432;2023-02-01T03:47:50;101851.63;;;3.84;89.41
74075;BME280;62428;51.412;5.432;2023-02-01T03:50:22;101848.19;;;3.84;89.40
74075;BME280;62428;51.412;5.432;2023-02-01T03:52:57;101841.22;;;3.83;89.64
74075;BME280;62428;51.412;5.432;2023-02-01T03:55:25;101861.69;;;3.82;89.65
74075;BME280;62428;51.412;5.432;2023-02-01T04:00:56;101854.72;;;3.81;89.60
74075;BME280;62428;51.412;5.432;2023-02-01T04:03:22;101850.25;;;3.82;89.44
74075;BME280;62428;51.412;5.432;2023-02-01T04:05:49;101858.00;;;3.83;89.66
74075;BME280;62428;51.412;5.432;2023-02-01T04:08:14;101850.25;;;3.82;89.60
74075;BME280;62428;51.412;5.432;2023-02-01T04:10:40;101840.41;;;3.82;89.60
74075;BME280;62428;51.412;5.432;2023-02-01T04:13:05;101853.72;;;3.82;89.40
74075;BME280;62428;51.412;5.432;2023-02-01T04:15:30;101853.72;;;3.82;89.56
74075;BME280;62428;51.412;5.432;2023-02-01T04:17:56;101837.97;;;3.81;89.33
74075;BME280;62428;51.412;5.432;2023-02-01T04:20:21;101836.94;;;3.82;89.49
74075;BME280;62428;51.412;5.432;2023-02-01T04:22:46;101828.97;;;3.82;89.94
74075;BME280;62428;51.412;5.432;2023-02-01T04:25:12;101821.59;;;3.84;89.40
74075;BME280;62428;51.412;5.432;2023-02-01T04:27:37;101822.41;;;3.84;90.01
74075;BME280;62428;51.412;5.432;2023-02-01T04:30:06;101822.41;;;3.84;89.79
74075;BME280;62428;51.412;5.432;2023-02-01T04:32:35;101827.13;;;3.82;89.50
74075;BME280;62428;51.412;5.432;2023-02-01T04:35:00;101838.56;;;3.83;89.73
74075;BME280;62428;51.412;5.432;2023-02-01T04:37:25;101841.22;;;3.83;89.28
74075;BME280;62428;51.412;5.432;2023-02-01T04:39:51;101848.59;;;3.81;89.23
74075;BME280;62428;51.412;5.432;2023-02-01T04:42:16;101836.78;;;3.77;89.83
74075;BME280;62428;51.412;5.432;2023-02-01T04:44:41;101838.06;;;3.74;89.53
74075;BME280;62428;51.412;5.432;2023-02-01T04:47:07;101843.81;;;3.71;89.83
74075;BME280;62428;51.412;5.432;2023-02-01T04:49:33;101832.13;;;3.72;89.53
74075;BME280;62428;51.412;5.432;2023-02-01T04:51:58;101839.72;;;3.69;89.67
74075;BME280;62428;51.412;5.432;2023-02-01T04:54:24;101842.63;;;3.67;90.13
74075;BME280;62428;51.412;5.432;2023-02-01T04:56:49;101846.91;;;3.68;89.70
74075;BME280;62428;51.412;5.432;2023-02-01T04:59:14;101842.41;;;3.69;89.71
74075;BME280;62428;51.412;5.432;2023-02-01T05:01:40;101846.91;;;3.68;89.55
74075;BME280;62428;51.412;5.432;2023-02-01T05:04:05;101844.47;;;3.66;89.78
74075;BME280;62428;51.412;5.432;2023-02-01T05:06:30;101849.41;;;3.63;90.10
74075;BME280;62428;51.412;5.432;2023-02-01T05:08:55;101856.78;;;3.61;90.14
74075;BME280;62428;51.412;5.432;2023-02-01T05:11:21;101859.66;;;3.59;89.86
74075;BME280;62428;51.412;5.432;2023-02-01T05:14:05;101860.72;;;3.58;90.10
74075;BME280;62428;51.412;5.432;2023-02-01T05:16:30;101853.75;;;3.57;89.84
74075;BME280;62428;51.412;5.432;2023-02-01T05:18:55;101849.72;;;3.55;90.30
74075;BME280;62428;51.412;5.432;2023-02-01T05:21:21;101847.25;;;3.53;90.41
74075;BME280;62428;51.412;5.432;2023-02-01T05:23:46;101850.72;;;3.54;90.19
74075;BME280;62428;51.412;5.432;2023-02-01T05:26:30;101851.56;;;3.54;90.48
74075;BME280;62428;51.412;5.432;2023-02-01T05:28:55;101844.59;;;3.53;90.55
74075;BME280;62428;51.412;5.432;2023-02-01T05:31:21;101835.84;;;3.53;90.22
74075;BME280;62428;51.412;5.432;2023-02-01T05:33:47;101836.63;;;3.53;90.41
74075;BME280;62428;51.412;5.432;2023-02-01T05:36:13;101832.13;;;3.54;90.66
74075;BME280;62428;51.412;5.432;2023-02-01T05:38:38;101826.59;;;3.55;90.77
74075;BME280;62428;51.412;5.432;2023-02-01T05:41:04;101823.72;;;3.57;90.88
74075;BME280;62428;51.412;5.432;2023-02-01T05:43:29;101830.81;;;3.63;90.44
74075;BME280;62428;51.412;5.432;2023-02-01T05:45:54;101832.81;;;3.68;90.29
74075;BME280;62428;51.412;5.432;2023-02-01T05:48:20;101838.72;;;3.70;90.59
74075;BME280;62428;51.412;5.432;2023-02-01T05:50:45;101846.47;;;3.71;90.76
74075;BME280;62428;51.412;5.432;2023-02-01T05:53:11;101845.78;;;3.76;90.37
74075;BME280;62428;51.412;5.432;2023-02-01T05:55:37;101854.97;;;3.80;90.26
74075;BME280;62428;51.412;5.432;2023-02-01T05:58:03;101848.59;;;3.81;90.44
74075;BME280;62428;51.412;5.432;2023-02-01T06:00:28;101846.75;;;3.81;90.50
74075;BME280;62428;51.412;5.432;2023-02-01T06:02:53;101849.56;;;3.87;90.29
74075;BME280;62428;51.412;5.432;2023-02-01T06:05:19;101848.97;;;3.84;90.61
74075;BME280;62428;51.412;5.432;2023-02-01T06:07:44;101854.28;;;3.84;90.79
74075;BME280;62428;51.412;5.432;2023-02-01T06:10:10;101843.88;;;3.83;90.81
74075;BME280;62428;51.412;5.432;2023-02-01T06:12:35;101845.50;;;3.84;90.83
74075;BME280;62428;51.412;5.432;2023-02-01T06:15:00;101851.06;;;3.82;90.95
74075;BME280;62428;51.412;5.432;2023-02-01T06:17:26;101841.22;;;3.83;90.67
74075;BME280;62428;51.412;5.432;2023-02-01T06:19:51;101845.72;;;3.82;90.69
74075;BME280;62428;51.412;5.432;2023-02-01T06:22:16;101842.63;;;3.85;90.71
74075;BME280;62428;51.412;5.432;2023-02-01T06:24:42;101854.28;;;3.84;90.99
74075;BME280;62428;51.412;5.432;2023-02-01T06:27:07;101858.00;;;3.83;90.76
74075;BME280;62428;51.412;5.432;2023-02-01T06:29:34;101852.69;;;3.83;90.85
74075;BME280;62428;51.412;5.432;2023-02-01T06:32:00;101866.56;;;3.85;90.91
74075;BME280;62428;51.412;5.432;2023-02-01T06:34:25;101862.84;;;3.87;90.84
74075;BME280;62428;51.412;5.432;2023-02-01T06:36:50;101854.88;;;3.87;90.70
74075;BME280;62428;51.412;5.432;2023-02-01T06:39:16;101857.75;;;3.85;91.01
74075;BME280;62428;51.412;5.432;2023-02-01T06:41:45;101861.69;;;3.82;90.93
74075;BME280;62428;51.412;5.432;2023-02-01T06:44:10;101864.34;;;3.82;90.67
74075;BME280;62428;51.412;5.432;2023-02-01T06:46:36;101865.34;;;3.81;90.75
74075;BME280;62428;51.412;5.432;2023-02-01T06:49:01;101869.06;;;3.80;91.24
74075;BME280;62428;51.412;5.432;2023-02-01T06:51:27;101875.19;;;3.81;91.40
74075;BME280;62428;51.412;5.432;2023-02-01T06:53:54;101875.78;;;3.83;91.28
74075;BME280;62428;51.412;5.432;2023-02-01T06:56:20;101869.44;;;3.84;91.52
74075;BME280;62428;51.412;5.432;2023-02-01T06:58:45;101867.81;;;3.83;91.45
74075;BME280;62428;51.412;5.432;2023-02-01T07:01:11;101871.06;;;3.85;91.31
74075;BME280;62428;51.412;5.432;2023-02-01T07:03:36;101873.13;;;3.83;91.43
74075;BME280;62428;51.412;5.432;2023-02-01T07:06:02;101873.72;;;3.85;91.40
74075;BME280;62428;51.412;5.432;2023-02-01T07:08:30;101874.75;;;3.84;91.46
74075;BME280;62428;51.412;5.432;2023-02-01T07:10:57;101871.06;;;3.85;91.27
74075;BME280;62428;51.412;5.432;2023-02-01T07:13:25;101872.31;;;3.82;91.61
74075;BME280;62428;51.412;5.432;2023-02-01T07:15:51;101867.00;;;3.82;91.70
74075;BME280;62428;51.412;5.432;2023-02-01T07:18:16;101872.31;;;3.82;91.37
74075;BME280;62428;51.412;5.432;2023-02-01T07:20:42;101876.84;;;3.82;91.78
74075;BME280;62428;51.412;5.432;2023-02-01T07:23:10;101863.53;;;3.82;91.35
74075;BME280;62428;51.412;5.432;2023-02-01T07:25:36;101868.03;;;3.81;91.62
74075;BME280;62428;51.412;5.432;2023-02-01T07:28:01;101866.19;;;3.82;91.54
74075;BME280;62428;51.412;5.432;2023-02-01T07:30:27;101876.84;;;3.82;91.36
74075;BME280;62428;51.412;5.432;2023-02-01T07:32:52;101874.97;;;3.82;91.17
74075;BME280;62428;51.412;5.432;2023-02-01T07:35:18;101872.53;;;3.81;91.30
74075;BME280;62428;51.412;5.432;2023-02-01T07:37:43;101869.28;;;3.79;91.29
74075;BME280;62428;51.412;5.432;2023-02-01T07:40:09;101880.13;;;3.77;91.39
74075;BME280;62428;51.412;5.432;2023-02-01T07:42:34;101881.41;;;3.75;91.36
74075;BME280;62428;51.412;5.432;2023-02-01T07:45:00;101882.22;;;3.75;91.52
74075;BME280;62428;51.412;5.432;2023-02-01T07:47:27;101886.50;;;3.76;91.21
74075;BME280;62428;51.412;5.432;2023-02-01T07:49:52;101883.00;;;3.76;91.36
74075;BME280;62428;51.412;5.432;2023-02-01T07:52:18;101884.06;;;3.75;91.15
74075;BME280;62428;51.412;5.432;2023-02-01T07:54:43;101887.31;;;3.77;91.18
74075;BME280;62428;51.412;5.432;2023-02-01T07:57:08;101890.19;;;3.75;91.48
74075;BME280;62428;51.412;5.432;2023-02-01T07:59:36;101890.19;;;3.75;91.27
74075;BME280;62428;51.412;5.432;2023-02-01T08:02:21;101884.22;;;3.80;90.75
74075;BME280;62428;51.412;5.432;2023-02-01T08:04:46;101886.03;;;3.79;91.44
74075;BME280;62428;51.412;5.432;2023-02-01T08:07:12;101883.38;;;3.79;91.39
74075;BME280;62428;51.412;5.432;2023-02-01T08:09:37;101890.13;;;3.82;90.94
74075;BME280;62428;51.412;5.432;2023-02-01T08:12:02;101897.22;;;3.88;90.65
74075;BME280;62428;51.412;5.432;2023-02-01T08:14:28;101900.09;;;3.87;90.82
74075;BME280;62428;51.412;5.432;2023-02-01T08:16:53;101902.75;;;3.87;91.31
74075;BME280;62428;51.412;5.432;2023-02-01T08:19:18;101909.28;;;3.91;90.93
74075;BME280;62428;51.412;5.432;2023-02-01T08:21:44;101913.91;;;3.95;90.80
74075;BME280;62428;51.412;5.432;2023-02-01T08:24:09;101914.28;;;3.99;91.31
74075;BME280;62428;51.412;5.432;2023-02-01T08:26:35;101901.34;;;4.02;90.30
74075;BME280;62428;51.412;5.432;2023-02-01T08:29:02;101909.34;;;4.02;90.64
74075;BME280;62428;51.412;5.432;2023-02-01T08:31:29;101905.66;;;4.03;90.45
74075;BME280;62428;51.412;5.432;2023-02-01T08:33:56;101905.41;;;4.05;90.53
74075;BME280;62428;51.412;5.432;2023-02-01T08:36:24;101914.81;;;4.08;90.40
74075;BME280;62428;51.412;5.432;2023-02-01T08:38:50;101910.66;;;4.12;90.77
74075;BME280;62428;51.412;5.432;2023-02-01T08:41:18;101919.59;;;4.17;90.02
74075;BME280;62428;51.412;5.432;2023-02-01T08:43:45;101915.22;;;4.23;90.02
74075;BME280;62428;51.412;5.432;2023-02-01T08:46:11;101921.50;;;4.29;90.04
74075;BME280;62428;51.412;5.432;2023-02-01T08:48:36;101921.66;;;4.34;89.60
74075;BME280;62428;51.412;5.432;2023-02-01T08:51:08;101912.88;;;4.33;89.75
74075;BME280;62428;51.412;5.432;2023-02-01T08:53:34;101918.34;;;4.38;89.71
74075;BME280;62428;51.412;5.432;2023-02-01T08:56:00;101906.44;;;4.41;89.49
74075;BME280;62428;51.412;5.432;2023-02-01T08:58:26;101911.31;;;4.44;89.78
74075;BME280;62428;51.412;5.432;2023-02-01T09:00:51;101901.84;;;4.48;89.89
74075;BME280;62428;51.412;5.432;2023-02-01T09:03:17;101902.19;;;4.52;89.68
74075;BME280;62428;51.412;5.432;2023-02-01T09:05:42;101901.28;;;4.58;89.93
74075;BME280;62428;51.412;5.432;2023-02-01T09:08:08;101896.31;;;4.61;89.87
74075;BME280;62428;51.412;5.432;2023-02-01T09:10:34;101890.13;;;4.68;89.83
74075;BME280;62428;51.412;5.432;2023-02-01T09:12:59;101887.81;;;4.71;89.44
74075;BME280;62428;51.412;5.432;2023-02-01T09:15:25;101872.78;;;4.77;89.14
74075;BME280;62428;51.412;5.432;2023-02-01T09:17:50;101879.06;;;4.82;88.95
74075;BME280;62428;51.412;5.432;2023-02-01T09:20:16;101872.81;;;4.89;88.86
74075;BME280;62428;51.412;5.432;2023-02-01T09:22:41;101866.00;;;5.05;88.35
74075;BME280;62428;51.412;5.432;2023-02-01T09:25:07;101867.28;;;5.14;88.43
74075;BME280;62428;51.412;5.432;2023-02-01T09:27:34;101865.81;;;5.30;87.73
74075;BME280;62428;51.412;5.432;2023-02-01T09:29:59;101873.56;;;5.43;87.35
74075;BME280;62428;51.412;5.432;2023-02-01T09:32:24;101871.16;;;5.53;87.46
74075;BME280;62428;51.412;5.432;2023-02-01T09:34:51;101871.59;;;5.62;86.55
74075;BME280;62428;51.412;5.432;2023-02-01T09:37:17;101854.91;;;5.67;85.98
74075;BME280;62428;51.412;5.432;2023-02-01T09:39:43;101858.16;;;5.69;85.76
74075;BME280;62428;51.412;5.432;2023-02-01T09:42:51;101869.28;;;5.77;86.21
74075;BME280;62428;51.412;5.432;2023-02-01T09:48:00;101867.06;;;5.98;84.27
74075;BME280;62428;51.412;5.432;2023-02-01T09:55:50;101873.53;;;6.02;84.13
74075;BME280;62428;51.412;5.432;2023-02-01T09:58:32;101870.88;;;6.02;85.00
74075;BME280;62428;51.412;5.432;2023-02-01T10:00:59;101872.03;;;6.06;83.31
74075;BME280;62428;51.412;5.432;2023-02-01T10:03:28;101864.28;;;6.05;83.53
74075;BME280;62428;51.412;5.432;2023-02-01T10:11:22;101860.69;;;6.28;82.91
74075;BME280;62428;51.412;5.432;2023-02-01T10:16:39;101870.25;;;6.52;81.51
74075;BME280;62428;51.412;5.432;2023-02-01T10:21:59;101877.03;;;6.89;80.28
74075;BME280;62428;51.412;5.432;2023-02-01T10:24:33;101878.59;;;7.02;79.79
74075;BME280;62428;51.412;5.432;2023-02-01T10:27:21;101882.47;;;7.11;80.07
74075;BME280;62428;51.412;5.432;2023-02-01T10:29:54;101905.06;;;7.20;79.50
74075;BME280;62428;51.412;5.432;2023-02-01T10:32:23;101907.84;;;7.25;77.98
74075;BME280;62428;51.412;5.432;2023-02-01T10:34:57;101895.47;;;7.19;78.10
74075;BME280;62428;51.412;5.432;2023-02-01T10:37:32;101905.22;;;7.13;78.01
74075;BME280;62428;51.412;5.432;2023-02-01T10:40:12;101906.06;;;7.14;77.70
74075;BME280;62428;51.412;5.432;2023-02-01T10:42:40;101902.81;;;7.12;78.07
74075;BME280;62428;51.412;5.432;2023-02-01T10:45:06;101916.44;;;7.10;76.65
74075;BME280;62428;51.412;5.432;2023-02-01T10:47:31;101913.44;;;7.07;77.05
74075;BME280;62428;51.412;5.432;2023-02-01T10:52:39;101902.31;;;6.98;77.33
74075;BME280;62428;51.412;5.432;2023-02-01T10:55:33;101891.16;;;7.01;78.63
74075;BME280;62428;51.412;5.432;2023-02-01T10:58:05;101886.84;;;7.00;76.60
74075;BME280;62428;51.412;5.432;2023-02-01T11:00:43;101880.47;;;7.01;77.22
74075;BME280;62428;51.412;5.432;2023-02-01T11:05:56;101884.69;;;7.14;77.25
74075;BME280;62428;51.412;5.432;2023-02-01T11:08:21;101883.94;;;7.19;76.67
74075;BME280;62428;51.412;5.432;2023-02-01T11:10:47;101875.13;;;7.18;76.09
74075;BME280;62428;51.412;5.432;2023-02-01T11:13:28;101860.13;;;7.17;76.23
74075;BME280;62428;51.412;5.432;2023-02-01T11:15:55;101861.09;;;7.11;76.48
74075;BME280;62428;51.412;5.432;2023-02-01T11:18:27;101864.81;;;7.10;75.96
74075;BME280;62428;51.412;5.432;2023-02-01T11:20:53;101857.06;;;7.08;75.93
74075;BME280;62428;51.412;5.432;2023-02-01T11:23:22;101856.19;;;7.03;75.00
74075;BME280;62428;51.412;5.432;2023-02-01T11:25:49;101850.00;;;7.02;75.82
74075;BME280;62428;51.412;5.432;2023-02-01T11:28:16;101849.13;;;6.97;75.25
74075;BME280;62428;51.412;5.432;2023-02-01T11:30:44;101846.13;;;6.93;76.12
74075;BME280;62428;51.412;5.432;2023-02-01T11:33:16;101849.03;;;6.91;75.91
74075;BME280;62428;51.412;5.432;2023-02-01T11:35:43;101847.97;;;6.92;74.66
74075;BME280;62428;51.412;5.432;2023-02-01T11:38:29;101840.53;;;6.95;76.22
74075;BME280;62428;51.412;5.432;2023-02-01T11:40:57;101827.91;;;6.90;74.58
74075;BME280;62428;51.412;5.432;2023-02-01T11:43:36;101839.16;;;6.92;75.63
74075;BME280;62428;51.412;5.432;2023-02-01T11:46:02;101837.88;;;6.95;75.17
74075;BME280;62428;51.412;5.432;2023-02-01T11:48:32;101838.44;;;6.97;75.39
74075;BME280;62428;51.412;5.432;2023-02-01T11:51:18;101832.59;;;7.00;75.28
74075;BME280;62428;51.412;5.432;2023-02-01T11:59:28;101815.81;;;7.04;74.52
74075;BME280;62428;51.412;5.432;2023-02-01T12:05:08;101820.94;;;7.06;74.44
74075;BME280;62428;51.412;5.432;2023-02-01T12:08:16;101838.34;;;7.08;75.55
74075;BME280;62428;51.412;5.432;2023-02-01T12:13:45;101826.03;;;7.07;75.24
74075;BME280;62428;51.412;5.432;2023-02-01T12:35:47;101816.09;;;7.03;75.59
74075;BME280;62428;51.412;5.432;2023-02-01T12:38:34;101808.09;;;7.03;76.11
74075;BME280;62428;51.412;5.432;2023-02-01T12:43:59;101806.28;;;7.08;75.05
74075;BME280;62428;51.412;5.432;2023-02-01T12:46:37;101812.13;;;7.05;75.84
74075;BME280;62428;51.412;5.432;2023-02-01T12:49:16;101820.22;;;7.10;75.73
74075;BME280;62428;51.412;5.432;2023-02-01T12:51:45;101804.66;;;7.07;75.50
74075;BME280;62428;51.412;5.432;2023-02-01T12:54:22;101803.34;;;7.10;75.64
74075;BME280;62428;51.412;5.432;2023-02-01T12:56:58;101798.59;;;7.12;75.83
74075;BME280;62428;51.412;5.432;2023-02-01T12:59:41;101804.50;;;7.14;76.53
74075;BME280;62428;51.412;5.432;2023-02-01T13:02:24;101797.03;;;7.16;75.75
74075;BME280;62428;51.412;5.432;2023-02-01T13:05:04;101809.94;;;7.19;75.33
74075;BME280;62428;51.412;5.432;2023-02-01T13:07:39;101798.97;;;7.21;76.13
74075;BME280;62428;51.412;5.432;2023-02-01T13:10:28;101784.88;;;7.25;75.51
74075;BME280;62428;51.412;5.432;2023-02-01T13:15:49;101791.03;;;7.26;76.01
74075;BME280;62428;51.412;5.432;2023-02-01T13:18:20;101788.13;;;7.27;75.10
74075;BME280;62428;51.412;5.432;2023-02-01T13:21:05;101803.09;;;7.28;75.23
74075;BME280;62428;51.412;5.432;2023-02-01T13:23:37;101787.31;;;7.27;75.42
74075;BME280;62428;51.412;5.432;2023-02-01T13:26:03;101783.31;;;7.29;75.41
74075;BME280;62428;51.412;5.432;2023-02-01T13:28:42;101793.78;;;7.31;76.33
74075;BME280;62428;51.412;5.432;2023-02-01T13:31:40;101780.72;;;7.35;76.05
74075;BME280;62428;51.412;5.432;2023-02-01T13:42:29;101795.59;;;7.47;75.74
74075;BME280;62428;51.412;5.432;2023-02-01T13:45:02;101792.94;;;7.47;75.56
74075;BME280;62428;51.412;5.432;2023-02-01T13:50:02;101794.88;;;7.52;75.50
74075;BME280;62428;51.412;5.432;2023-02-01T13:55:45;101796.97;;;7.50;75.06
74075;BME280;62428;51.412;5.432;2023-02-01T13:58:29;101788.69;;;7.51;75.38
74075;BME280;62428;51.412;5.432;2023-02-01T14:03:53;101807.34;;;7.46;75.24
74075;BME280;62428;51.412;5.432;2023-02-01T14:11:48;101807.63;;;7.45;75.52
74075;BME280;62428;51.412;5.432;2023-02-01T14:19:27;101817.13;;;7.36;76.13
74075;BME280;62428;51.412;5.432;2023-02-01T14:21:54;101819.19;;;7.34;76.59
74075;BME280;62428;51.412;5.432;2023-02-01T14:24:34;101822.94;;;7.32;76.43
74075;BME280;62428;51.412;5.432;2023-02-01T14:27:16;101829.88;;;7.34;76.25
74075;BME280;62428;51.412;5.432;2023-02-01T14:29:49;101821.81;;;7.28;76.39
74075;BME280;62428;51.412;5.432;2023-02-01T14:32:21;101817.03;;;7.30;76.59
74075;BME280;62428;51.412;5.432;2023-02-01T14:44:53;101821.75;;;7.23;76.86
74075;BME280;62428;51.412;5.432;2023-02-01T14:49:54;101819.06;;;7.23;76.86
74075;BME280;62428;51.412;5.432;2023-02-01T14:52:23;101817.44;;;7.22;77.32
74075;BME280;62428;51.412;5.432;2023-02-01T14:54:55;101815.00;;;7.21;77.46
74075;BME280;62428;51.412;5.432;2023-02-01T14:57:26;101810.50;;;7.21;77.17
74075;BME280;62428;51.412;5.432;2023-02-01T14:59:59;101825.97;;;7.19;77.57
74075;BME280;62428;51.412;5.432;2023-02-01T15:02:31;101832.34;;;7.18;77.15
74075;BME280;62428;51.412;5.432;2023-02-01T15:04:59;101831.78;;;7.16;77.80
74075;BME280;62428;51.412;5.432;2023-02-01T15:07:25;101824.25;;;7.13;77.67
74075;BME280;62428;51.412;5.432;2023-02-01T15:09:52;101842.97;;;7.13;77.65
74075;BME280;62428;51.412;5.432;2023-02-01T15:12:24;101831.22;;;7.14;77.53
74075;BME280;62428;51.412;5.432;2023-02-01T15:15:14;101827.72;;;7.13;78.04
74075;BME280;62428;51.412;5.432;2023-02-01T15:17:40;101828.31;;;7.16;77.37
74075;BME280;62428;51.412;5.432;2023-02-01T15:22:59;101834.47;;;7.16;77.68